createdAt,value
2023-01-14T00:01:22.214Z,31.05
2023-01-14T00:03:50.996Z,28.73
2023-01-14T00:06:21.848Z,31.83
2023-01-14T00:08:55.610Z,29.05
2023-01-14T00:11:44.321Z,29.95
2023-01-14T00:14:15.317Z,28.10
2023-01-14T00:16:44.412Z,26.45
2023-01-14T00:19:15.687Z,34.78
2023-01-14T00:21:45.819Z,26.83
2023-01-14T00:24:15.318Z,25.98
2023-01-14T00:26:43.961Z,29.17
2023-01-14T00:29:22.736Z,27.33
2023-01-14T00:31:51.293Z,29.42
2023-01-14T00:34:23.232Z,31.75
2023-01-14T00:36:52.936Z,35.63
2023-01-14T00:39:22.808Z,27.05
2023-01-14T00:41:51.421Z,34.47
2023-01-14T00:44:20.856Z,30.10
2023-01-14T00:46:51.880Z,28.00
2023-01-14T00:49:23.284Z,26.40
2023-01-14T00:51:52.243Z,24.35
2023-01-14T00:54:20.599Z,23.67
2023-01-14T00:56:49.403Z,23.77
2023-01-14T00:59:20.882Z,23.77
2023-01-14T01:01:52.712Z,23.52
2023-01-14T01:04:21.103Z,24.75
2023-01-14T01:06:49.294Z,25.98
2023-01-14T01:09:17.527Z,18.92
2023-01-14T01:11:45.823Z,23.52
2023-01-14T01:14:16.076Z,23.98
2023-01-14T01:16:44.816Z,22.20
2023-01-14T01:19:13.159Z,29.25
2023-01-14T01:21:41.352Z,21.58
2023-01-14T01:24:09.531Z,30.77
2023-01-14T01:26:37.719Z,34.10
2023-01-14T01:29:06.253Z,30.58
2023-01-14T01:31:34.513Z,33.92
2023-01-14T01:34:02.856Z,36.47
2023-01-14T01:36:31.090Z,41.70
2023-01-14T01:38:59.781Z,34.00
2023-01-14T01:41:30.877Z,32.33
2023-01-14T01:44:08.767Z,30.77
2023-01-14T01:46:38.765Z,28.35
2023-01-14T01:49:37.495Z,31.83
2023-01-14T01:52:23.355Z,31.48
2023-01-14T01:55:09.321Z,29.77
2023-01-14T01:57:38.482Z,25.20
2023-01-14T02:00:09.454Z,29.17
2023-01-14T02:02:40.580Z,33.63
2023-01-14T02:05:09.814Z,33.13
2023-01-14T02:07:37.976Z,30.40
2023-01-14T02:10:07.984Z,29.17
2023-01-14T02:13:01.559Z,33.28
2023-01-14T02:15:39.358Z,33.20
2023-01-14T02:18:37.095Z,27.33
2023-01-14T02:21:21.551Z,28.17
2023-01-14T02:24:28.741Z,27.25
2023-01-14T02:27:27.502Z,30.08
2023-01-14T02:30:23.399Z,26.30
2023-01-14T02:33:10.538Z,31.50
2023-01-14T02:35:52.373Z,26.52
2023-01-14T02:38:27.305Z,28.80
2023-01-14T02:41:02.852Z,26.58
2023-01-14T02:44:01.302Z,31.45
2023-01-14T02:46:37.045Z,31.48
2023-01-14T02:49:22.044Z,32.08
2023-01-14T02:51:58.292Z,34.20
2023-01-14T02:54:28.212Z,29.95
2023-01-14T02:57:05.238Z,30.92
2023-01-14T02:59:47.676Z,27.95
2023-01-14T03:02:22.216Z,28.50
2023-01-14T03:05:02.338Z,27.23
2023-01-14T03:07:47.047Z,27.40
2023-01-14T03:10:19.564Z,30.45
2023-01-14T03:13:03.518Z,28.30
2023-01-14T03:15:37.257Z,27.45
2023-01-14T03:18:46.921Z,29.52
2023-01-14T03:21:25.772Z,27.60
2023-01-14T03:24:00.359Z,27.67
2023-01-14T03:26:32.344Z,30.70
2023-01-14T03:29:06.600Z,25.85
2023-01-14T03:31:40.869Z,24.23
2023-01-14T03:34:21.468Z,29.05
2023-01-14T03:36:52.144Z,29.75
2023-01-14T03:39:26.554Z,24.67
2023-01-14T03:42:17.981Z,25.10
2023-01-14T03:44:54.766Z,24.55
2023-01-14T03:47:24.322Z,22.48
2023-01-14T03:49:53.595Z,21.73
2023-01-14T03:52:56.477Z,20.05
2023-01-14T03:55:48.093Z,20.67
2023-01-14T03:58:30.966Z,18.55
2023-01-14T04:01:11.989Z,13.38
2023-01-14T04:03:41.417Z,13.07
2023-01-14T04:06:10.436Z,15.98
2023-01-14T04:08:38.886Z,13.00
2023-01-14T04:11:07.545Z,15.82
2023-01-14T04:13:54.329Z,18.90
2023-01-14T04:16:22.710Z,18.10
2023-01-14T04:18:51.012Z,19.40
2023-01-14T04:21:19.165Z,21.95
2023-01-14T04:23:47.355Z,24.65
2023-01-14T04:26:15.607Z,25.30
2023-01-14T04:28:43.832Z,26.85
2023-01-14T04:31:11.998Z,23.25
2023-01-14T04:33:41.355Z,22.45
2023-01-14T04:36:09.699Z,21.17
2023-01-14T04:38:37.927Z,20.55
2023-01-14T04:41:06.538Z,24.05
2023-01-14T04:43:34.745Z,24.67
2023-01-14T04:46:02.908Z,21.27
2023-01-14T04:48:31.112Z,19.23
2023-01-14T04:51:02.158Z,22.10
2023-01-14T04:53:30.343Z,27.55
2023-01-14T04:55:58.515Z,23.98
2023-01-14T04:58:26.727Z,24.55
2023-01-14T05:00:55.653Z,24.58
2023-01-14T05:03:24.658Z,23.70
2023-01-14T05:05:52.835Z,23.15
2023-01-14T05:08:21.582Z,21.65
2023-01-14T05:10:52.726Z,23.58
2023-01-14T05:13:21.038Z,19.45
2023-01-14T05:15:49.358Z,21.95
2023-01-14T05:18:18.574Z,20.13
2023-01-14T05:20:46.857Z,18.38
2023-01-14T05:23:17.424Z,22.42
2023-01-14T05:25:45.728Z,23.02
2023-01-14T05:28:16.519Z,23.73
2023-01-14T05:30:44.936Z,21.77
2023-01-14T05:33:13.454Z,24.40
2023-01-14T05:35:41.999Z,21.92
2023-01-14T05:38:11.165Z,19.95
2023-01-14T05:40:39.283Z,23.83
2023-01-14T05:43:25.860Z,23.83
2023-01-14T05:45:54.021Z,20.88
2023-01-14T05:48:26.647Z,22.15
2023-01-14T05:50:59.519Z,21.85
2023-01-14T05:53:28.559Z,21.60
2023-01-14T05:55:58.337Z,19.63
2023-01-14T05:58:28.389Z,19.35
2023-01-14T06:01:20.714Z,22.15
2023-01-14T06:04:07.913Z,25.52
2023-01-14T06:06:40.120Z,26.63
2023-01-14T06:09:11.216Z,20.63
2023-01-14T06:12:03.008Z,20.95
2023-01-14T06:14:35.563Z,27.48
2023-01-14T06:17:09.365Z,33.03
2023-01-14T06:19:37.633Z,30.60
2023-01-14T06:22:07.601Z,28.90
2023-01-14T06:24:35.881Z,24.38
2023-01-14T06:27:08.038Z,23.57
2023-01-14T06:29:36.262Z,18.90
2023-01-14T06:32:07.659Z,16.65
2023-01-14T06:34:35.863Z,15.38
2023-01-14T06:37:03.999Z,15.65
2023-01-14T06:39:32.121Z,19.38
2023-01-14T06:42:00.302Z,17.38
2023-01-14T06:44:28.733Z,16.92
2023-01-14T06:46:56.958Z,15.02
2023-01-14T06:49:25.056Z,13.65
2023-01-14T06:51:53.722Z,18.23
2023-01-14T06:54:21.923Z,18.17
2023-01-14T06:56:50.165Z,17.98
2023-01-14T06:59:18.532Z,14.35
2023-01-14T07:01:49.107Z,16.92
2023-01-14T07:04:17.294Z,19.17
2023-01-14T07:06:45.515Z,14.38
2023-01-14T07:09:15.624Z,15.73
2023-01-14T07:11:44.028Z,16.98
2023-01-14T07:14:12.346Z,14.45
2023-01-14T07:16:40.603Z,14.40
2023-01-14T07:19:08.909Z,16.77
2023-01-14T07:21:37.107Z,17.95
2023-01-14T07:24:06.161Z,17.17
2023-01-14T07:26:34.728Z,16.75
2023-01-14T07:29:03.152Z,17.80
2023-01-14T07:31:31.701Z,11.65
2023-01-14T07:33:59.829Z,15.88
2023-01-14T07:36:28.031Z,13.65
2023-01-14T07:38:56.215Z,15.95
2023-01-14T07:41:24.447Z,16.08
2023-01-14T07:43:53.235Z,18.17
2023-01-14T07:46:21.425Z,15.30
2023-01-14T07:48:49.604Z,12.82
2023-01-14T07:51:21.747Z,15.95
2023-01-14T07:53:50.607Z,17.50
2023-01-14T07:56:19.284Z,13.02
2023-01-14T07:58:49.392Z,14.10
2023-01-14T08:01:17.770Z,14.02
2023-01-14T08:03:46.141Z,16.60
2023-01-14T08:06:14.532Z,17.10
2023-01-14T08:08:42.702Z,16.23
2023-01-14T08:11:10.928Z,27.75
2023-01-14T08:13:39.106Z,20.58
2023-01-14T08:16:08.399Z,22.90
2023-01-14T08:18:37.344Z,23.33
2023-01-14T08:21:08.027Z,24.75
2023-01-14T08:23:36.829Z,30.35
2023-01-14T08:26:07.725Z,28.50
2023-01-14T08:28:37.034Z,27.05
2023-01-14T08:31:07.736Z,26.60
2023-01-14T08:33:38.397Z,23.27
2023-01-14T08:36:09.451Z,24.58
2023-01-14T08:38:40.905Z,30.85
2023-01-14T08:41:12.100Z,19.70
2023-01-14T08:43:42.484Z,19.23
2023-01-14T08:46:13.170Z,18.23
2023-01-14T08:48:41.415Z,20.95
2023-01-14T08:51:12.049Z,16.50
2023-01-14T08:53:41.309Z,15.10
2023-01-14T08:56:17.014Z,17.58
2023-01-14T08:58:45.971Z,17.65
2023-01-14T09:01:15.911Z,16.70
2023-01-14T09:03:47.101Z,12.70
2023-01-14T09:06:18.808Z,14.32
2023-01-14T09:09:05.648Z,15.45
2023-01-14T09:11:59.908Z,14.88
2023-01-14T09:14:48.964Z,16.67
2023-01-14T09:17:22.007Z,15.70
2023-01-14T09:19:55.053Z,16.75
2023-01-14T09:22:32.490Z,17.90
2023-01-14T09:25:00.962Z,17.85
2023-01-14T09:27:30.917Z,19.75
2023-01-14T09:29:59.632Z,18.10
2023-01-14T09:32:27.821Z,17.42
2023-01-14T09:34:56.074Z,16.63
2023-01-14T09:37:26.015Z,13.73
2023-01-14T09:39:54.318Z,14.00
2023-01-14T09:42:29.441Z,17.25
2023-01-14T09:45:13.376Z,21.00
2023-01-14T09:47:44.058Z,17.52
2023-01-14T09:50:41.544Z,15.88
2023-01-14T09:53:28.524Z,14.13
2023-01-14T09:56:15.909Z,17.35
2023-01-14T09:59:19.002Z,21.90
2023-01-14T10:01:57.089Z,13.43
2023-01-14T10:04:43.854Z,13.10
2023-01-14T10:07:15.635Z,15.27
2023-01-14T10:09:54.117Z,14.32
2023-01-14T10:12:37.712Z,12.25
2023-01-14T10:18:03.101Z,13.73
2023-01-14T10:20:43.687Z,11.30
2023-01-14T10:23:22.225Z,11.18
2023-01-14T10:25:53.572Z,14.38
2023-01-14T10:28:30.985Z,13.90
2023-01-14T10:31:02.322Z,14.15
2023-01-14T10:33:30.573Z,14.52
2023-01-14T10:36:09.855Z,13.75
2023-01-14T10:38:41.930Z,14.98
2023-01-14T10:41:24.932Z,11.52
2023-01-14T10:43:53.723Z,12.63
2023-01-14T10:46:23.518Z,12.02
2023-01-14T10:49:18.452Z,12.52
2023-01-14T10:51:51.535Z,12.93
2023-01-14T10:54:26.297Z,23.45
2023-01-14T10:57:14.647Z,14.55
2023-01-14T10:59:52.424Z,15.35
2023-01-14T11:02:36.001Z,12.23
2023-01-14T11:05:27.616Z,14.82
2023-01-14T11:08:05.232Z,13.65
2023-01-14T11:10:33.743Z,12.35
2023-01-14T11:13:30.765Z,16.67
2023-01-14T11:16:02.904Z,15.52
2023-01-14T11:18:35.076Z,16.85
2023-01-14T11:21:21.698Z,14.98
2023-01-14T11:24:03.297Z,13.30
2023-01-14T11:26:33.238Z,14.35
2023-01-14T11:29:24.040Z,19.88
2023-01-14T11:32:14.153Z,14.93
2023-01-14T11:35:16.767Z,17.50
2023-01-14T11:37:48.457Z,17.20
2023-01-14T11:40:57.090Z,17.45
2023-01-14T11:43:28.254Z,14.35
2023-01-14T11:46:15.987Z,18.95
2023-01-14T11:48:44.178Z,17.60
2023-01-14T11:51:23.435Z,16.95
2023-01-14T11:53:53.716Z,16.00
2023-01-14T11:56:30.771Z,15.27
2023-01-14T11:59:02.015Z,15.38
2023-01-14T12:01:40.332Z,15.38
2023-01-14T12:04:20.487Z,13.07
2023-01-14T12:07:06.328Z,13.20
2023-01-14T12:09:51.276Z,12.50
2023-01-14T12:12:23.371Z,11.30
2023-01-14T12:15:24.217Z,12.45
2023-01-14T12:17:58.000Z,11.35
2023-01-14T12:20:29.700Z,12.32
2023-01-14T12:23:06.385Z,12.00
2023-01-14T12:25:40.030Z,11.75
2023-01-14T12:28:23.307Z,11.77
2023-01-14T12:31:19.996Z,15.02
2023-01-14T12:33:50.859Z,13.55
2023-01-14T12:36:22.395Z,16.13
2023-01-14T12:39:28.486Z,15.40
2023-01-14T12:42:22.998Z,21.02
2023-01-14T12:45:21.049Z,11.75
2023-01-14T12:47:49.429Z,15.18
2023-01-14T12:50:17.770Z,15.35
2023-01-14T12:52:51.730Z,19.65
2023-01-14T12:55:33.978Z,16.05
2023-01-14T12:58:05.302Z,14.52
2023-01-14T13:00:37.156Z,20.77
2023-01-14T13:03:10.564Z,14.23
2023-01-14T13:08:29.984Z,15.55
2023-01-14T13:11:06.649Z,16.85
2023-01-14T13:13:38.077Z,12.25
2023-01-14T13:16:45.113Z,16.40
2023-01-14T13:19:51.734Z,15.45
2023-01-14T13:22:44.915Z,14.68
2023-01-14T13:25:39.367Z,14.75
2023-01-14T13:28:16.734Z,13.13
2023-01-14T13:30:50.212Z,16.27
2023-01-14T13:33:26.019Z,14.98
2023-01-14T13:36:15.106Z,16.42
2023-01-14T13:38:44.412Z,14.52
2023-01-14T13:41:30.730Z,12.90
2023-01-14T13:44:00.057Z,14.13
2023-01-14T13:46:38.504Z,14.30
2023-01-14T13:49:21.689Z,16.30
2023-01-14T13:51:52.813Z,15.55
2023-01-14T13:54:35.834Z,18.77
2023-01-14T13:57:20.369Z,19.92
2023-01-14T14:00:20.522Z,20.95
2023-01-14T14:02:51.237Z,16.63
2023-01-14T14:05:23.509Z,21.25
2023-01-14T14:08:00.708Z,17.25
2023-01-14T14:10:36.118Z,16.50
2023-01-14T14:13:29.079Z,18.40
2023-01-14T14:16:04.167Z,16.05
2023-01-14T14:18:49.349Z,16.92
2023-01-14T14:21:25.732Z,17.40
2023-01-14T14:23:59.829Z,20.88
2023-01-14T14:26:31.268Z,18.33
2023-01-14T14:29:25.880Z,15.93
2023-01-14T14:32:01.661Z,14.23
2023-01-14T14:34:29.944Z,18.98
2023-01-14T14:37:04.616Z,14.35
2023-01-14T14:39:34.368Z,18.67
2023-01-14T14:42:14.360Z,15.02
2023-01-14T14:45:00.438Z,17.33
2023-01-14T14:47:37.363Z,16.77
2023-01-14T14:50:22.766Z,16.35
2023-01-14T14:52:51.012Z,19.85
2023-01-14T14:55:20.035Z,16.08
2023-01-14T14:57:48.493Z,16.98
2023-01-14T15:00:20.732Z,18.95
2023-01-14T15:02:58.866Z,20.77
2023-01-14T15:05:32.575Z,17.90
2023-01-14T15:08:09.403Z,15.73
2023-01-14T15:10:38.504Z,22.58
2023-01-14T15:13:18.346Z,20.27
2023-01-14T15:15:46.569Z,25.20
2023-01-14T15:18:39.647Z,24.75
2023-01-14T15:21:10.843Z,19.57
2023-01-14T15:23:45.098Z,21.20
2023-01-14T15:26:19.364Z,26.60
2023-01-14T15:28:49.098Z,22.45
2023-01-14T15:31:34.169Z,19.52
2023-01-14T15:34:05.344Z,22.35
2023-01-14T15:36:35.942Z,22.33
2023-01-14T15:39:05.398Z,20.15
2023-01-14T15:41:39.195Z,21.25
2023-01-14T15:44:08.014Z,20.85
2023-01-14T15:46:36.231Z,23.02
2023-01-14T15:49:11.707Z,24.85
2023-01-14T15:51:41.872Z,23.52
2023-01-14T15:54:39.369Z,25.83
2023-01-14T15:57:16.328Z,22.27
2023-01-14T16:00:07.480Z,27.45
2023-01-14T16:02:37.331Z,28.67
2023-01-14T16:05:27.975Z,32.72
2023-01-14T16:08:01.370Z,27.10
2023-01-14T16:10:30.320Z,29.17
2023-01-14T16:13:02.157Z,33.63
2023-01-14T16:15:34.309Z,37.95
2023-01-14T16:18:05.717Z,62.42
2023-01-14T16:20:33.924Z,64.00
2023-01-14T16:23:02.128Z,54.67
2023-01-14T16:25:31.740Z,56.85
2023-01-14T16:27:59.952Z,59.30
2023-01-14T16:30:36.750Z,49.97
2023-01-14T16:33:07.637Z,47.00
2023-01-14T16:35:35.950Z,50.78
2023-01-14T16:38:07.080Z,46.30
2023-01-14T16:40:36.458Z,50.85
2023-01-14T16:43:05.239Z,43.90
2023-01-14T16:45:33.728Z,39.47
2023-01-14T16:48:02.116Z,40.00
2023-01-14T16:50:30.298Z,34.33
2023-01-14T16:52:59.003Z,32.65
2023-01-14T16:55:30.168Z,33.42
2023-01-14T16:58:01.907Z,35.03
2023-01-14T17:00:32.379Z,32.22
2023-01-14T17:03:01.034Z,31.63
2023-01-14T17:05:29.330Z,31.10
2023-01-14T17:07:57.740Z,28.58
2023-01-14T17:10:29.187Z,31.35
2023-01-14T17:13:00.356Z,33.03
2023-01-14T17:15:29.590Z,32.08
2023-01-14T17:17:59.839Z,28.55
2023-01-14T17:20:30.442Z,28.77
2023-01-14T17:23:01.314Z,26.95
2023-01-14T17:25:30.451Z,27.42
2023-01-14T17:28:01.949Z,31.30
2023-01-14T17:30:31.168Z,25.23
2023-01-14T17:33:02.237Z,34.08
2023-01-14T17:35:33.794Z,31.73
2023-01-14T17:38:06.596Z,29.92
2023-01-14T17:40:39.512Z,28.65
2023-01-14T17:43:09.267Z,30.30
2023-01-14T17:45:37.703Z,26.15
2023-01-14T17:48:09.220Z,31.13
2023-01-14T17:50:42.513Z,32.55
2023-01-14T17:53:13.620Z,29.98
2023-01-14T17:55:42.532Z,28.88
2023-01-14T17:58:11.147Z,33.78
2023-01-14T18:00:45.829Z,29.95
2023-01-14T18:03:18.129Z,29.55
2023-01-14T18:05:47.352Z,34.92
2023-01-14T18:08:15.810Z,35.40
2023-01-14T18:10:57.055Z,28.73
2023-01-14T18:13:25.658Z,32.72
2023-01-14T18:15:55.380Z,36.92
2023-01-14T18:18:23.922Z,35.35
2023-01-14T18:21:00.379Z,33.75
2023-01-14T18:23:28.654Z,33.88
2023-01-14T18:25:57.153Z,35.97
2023-01-14T18:28:25.342Z,36.33
2023-01-14T18:30:59.866Z,34.65
2023-01-14T18:33:28.376Z,31.60
2023-01-14T18:35:56.586Z,39.88
2023-01-14T18:38:24.940Z,37.50
2023-01-14T18:40:53.233Z,34.35
2023-01-14T18:43:21.513Z,38.80
2023-01-14T18:45:49.827Z,39.03
2023-01-14T18:48:18.125Z,35.97
2023-01-14T18:50:46.374Z,40.72
2023-01-14T18:53:16.177Z,42.15
2023-01-14T18:55:44.456Z,39.88
2023-01-14T18:58:12.692Z,44.25
2023-01-14T19:00:40.894Z,44.65
2023-01-14T19:03:09.191Z,33.75
2023-01-14T19:05:41.618Z,35.30
2023-01-14T19:08:10.540Z,38.90
2023-01-14T19:10:38.819Z,38.20
2023-01-14T19:13:08.212Z,36.85
2023-01-14T19:15:36.433Z,39.60
2023-01-14T19:18:04.683Z,38.78
2023-01-14T19:20:33.464Z,35.42
2023-01-14T19:23:01.765Z,35.67
2023-01-14T19:25:30.329Z,38.10
2023-01-14T19:27:58.565Z,38.40
2023-01-14T19:30:27.952Z,38.70
2023-01-14T19:32:56.207Z,42.08
2023-01-14T19:35:27.137Z,49.75
2023-01-14T19:37:55.328Z,50.08
2023-01-14T19:40:23.473Z,46.22
2023-01-14T19:42:51.692Z,51.20
2023-01-14T19:45:19.811Z,49.40
2023-01-14T19:47:48.093Z,46.38
2023-01-14T19:50:16.710Z,49.30
2023-01-14T19:52:45.115Z,46.05
2023-01-14T19:55:13.739Z,56.53
2023-01-14T19:57:42.022Z,55.17
2023-01-14T20:00:11.122Z,48.10
2023-01-14T20:02:42.755Z,50.25
2023-01-14T20:05:11.339Z,53.70
2023-01-14T20:07:39.621Z,48.72
2023-01-14T20:10:11.749Z,62.33
2023-01-14T20:12:44.078Z,69.18
2023-01-14T20:15:12.560Z,75.87
2023-01-14T20:17:40.784Z,75.13
2023-01-14T20:20:10.581Z,72.47
2023-01-14T20:22:38.805Z,76.15
2023-01-14T20:25:07.411Z,68.07
2023-01-14T20:27:35.669Z,74.97
2023-01-14T20:30:04.586Z,65.10
2023-01-14T20:32:36.361Z,67.25
2023-01-14T20:35:05.104Z,65.68
2023-01-14T20:37:36.379Z,68.05
2023-01-14T20:40:07.404Z,67.55
2023-01-14T20:42:35.691Z,61.10
2023-01-14T20:45:04.660Z,64.28
2023-01-14T20:47:57.919Z,64.13
2023-01-14T20:50:26.386Z,54.63
2023-01-14T20:52:54.817Z,52.50
2023-01-14T20:55:23.027Z,52.85
2023-01-14T20:57:52.280Z,51.38
2023-01-14T21:00:26.142Z,52.00
2023-01-14T21:03:20.316Z,49.28
2023-01-14T21:05:44.245Z,50.58
2023-01-14T21:08:12.520Z,53.60
2023-01-14T21:10:41.255Z,53.00
2023-01-14T21:13:29.412Z,53.00
2023-01-14T21:16:16.346Z,54.60
2023-01-14T21:19:06.239Z,62.50
2023-01-14T21:21:54.771Z,57.85
2023-01-14T21:24:24.917Z,71.53
2023-01-14T21:26:54.107Z,63.45
2023-01-14T21:29:22.399Z,66.22
2023-01-14T21:31:50.592Z,70.75
2023-01-14T21:34:19.048Z,77.70
2023-01-14T21:36:47.265Z,71.32
2023-01-14T21:39:15.489Z,79.85
2023-01-14T21:42:02.325Z,75.60
2023-01-14T21:44:35.850Z,74.28
2023-01-14T21:47:12.267Z,74.38
2023-01-14T21:49:42.245Z,79.32
2023-01-14T21:52:11.963Z,81.78
2023-01-14T21:54:40.199Z,75.05
2023-01-14T21:57:08.347Z,76.35
2023-01-14T21:59:36.588Z,79.55
2023-01-14T22:02:04.940Z,74.70
2023-01-14T22:04:33.253Z,72.43
2023-01-14T22:07:01.367Z,71.68
2023-01-14T22:09:29.579Z,69.90
2023-01-14T22:11:57.760Z,79.45
2023-01-14T22:14:29.211Z,70.50
2023-01-14T22:16:57.542Z,71.68
2023-01-14T22:19:29.044Z,75.30
2023-01-14T22:21:57.281Z,67.68
2023-01-14T22:24:25.459Z,72.43
2023-01-14T22:26:53.582Z,71.68
2023-01-14T22:29:21.898Z,69.40
2023-01-14T22:31:50.829Z,72.15
2023-01-14T22:34:19.927Z,67.85
2023-01-14T22:36:48.136Z,67.97
2023-01-14T22:39:17.461Z,70.10
2023-01-14T22:41:47.747Z,69.30
2023-01-14T22:44:16.543Z,71.47
2023-01-14T22:46:44.722Z,70.63
2023-01-14T22:49:12.921Z,66.47
2023-01-14T22:51:41.095Z,111.93
2023-01-14T22:54:09.308Z,128.63
2023-01-14T22:56:37.553Z,109.30
2023-01-14T22:59:05.909Z,119.95
2023-01-14T23:01:34.139Z,107.70
2023-01-14T23:04:02.412Z,105.20
2023-01-14T23:06:31.475Z,98.47
2023-01-14T23:09:01.147Z,99.70
2023-01-14T23:11:30.411Z,82.07
2023-01-14T23:14:04.381Z,77.70
2023-01-14T23:16:52.905Z,71.60
2023-01-14T23:19:26.315Z,68.38
2023-01-14T23:22:13.423Z,67.47
2023-01-14T23:24:43.874Z,73.13
2023-01-14T23:27:15.267Z,62.75
2023-01-14T23:29:43.849Z,68.18
2023-01-14T23:32:15.243Z,66.15
2023-01-14T23:34:47.087Z,71.88
2023-01-14T23:37:15.447Z,58.78
2023-01-14T23:39:43.641Z,64.50
2023-01-14T23:42:27.933Z,63.42
2023-01-14T23:45:00.114Z,64.03
2023-01-14T23:47:28.350Z,56.70
2023-01-14T23:49:56.687Z,63.22
2023-01-14T23:52:24.890Z,62.85
2023-01-14T23:54:53.138Z,65.55
2023-01-14T23:57:21.365Z,69.13
2023-01-14T23:59:49.549Z,61.33
